Time;durP1;ratioP1;P1;durP2;ratioP2;P2;SDS_P1;SDS_P2;PMS_P1;PMS_P2;Temp;Humidity;BMP_temperature;BMP_pressure;BME280_temperature;BME280_humidity;BME280_pressure;Samples;Min_cycle;Max_cycle;Signal;HPM_P1;HPM_P2
2021/12/12 00:03:31;;;;;;;45.77;22.90;;;-5.30;99.90;;;;;;8315788;28;20185;-70
2021/12/12 00:07:33;;;;;;;56.47;23.87;;;-5.40;99.90;;;;;;8303861;28;20325;-68
2021/12/12 00:11:35;;;;;;;52.73;26.20;;;-5.50;99.90;;;;;;8296817;28;20280;-68
2021/12/12 00:15:36;;;;;;;67.53;29.13;;;-5.50;99.90;;;;;;8319173;28;20198;-68
2021/12/12 00:19:38;;;;;;;60.93;27.57;;;-5.60;99.90;;;;;;8316450;28;20185;-68
2021/12/12 00:23:39;;;;;;;70.73;31.27;;;-5.70;99.90;;;;;;8318277;28;20246;-68
2021/12/12 00:27:40;;;;;;;79.77;31.43;;;-5.80;99.90;;;;;;8319718;28;20244;-69
2021/12/12 00:31:43;;;;;;;77.90;33.10;;;-5.90;99.90;;;;;;8316534;28;20190;-68
2021/12/12 00:35:44;;;;;;;56.30;23.87;;;-5.90;99.90;;;;;;8323494;28;20471;-69
2021/12/12 00:39:51;;;;;;;55.47;23.07;;;-6.00;99.90;;;;;;8328778;28;20193;-68
2021/12/12 00:43:53;;;;;;;57.63;24.80;;;-6.00;99.90;;;;;;8328148;28;20201;-68
2021/12/12 00:47:55;;;;;;;59.27;25.73;;;-6.00;99.90;;;;;;8315333;28;20205;-69
2021/12/12 00:51:56;;;;;;;54.60;24.77;;;-6.00;99.90;;;;;;8309811;28;20189;-69
2021/12/12 00:55:57;;;;;;;54.63;24.60;;;-5.90;99.90;;;;;;8314292;28;20193;-69
2021/12/12 00:59:59;;;;;;;58.03;25.47;;;-5.90;99.90;;;;;;8300885;28;20212;-70
2021/12/12 01:04:07;;;;;;;54.63;23.20;;;-5.80;99.90;;;;;;8309655;28;20183;-69
2021/12/12 01:08:10;;;;;;;54.87;24.00;;;-5.80;99.90;;;;;;8322694;28;20214;-69
2021/12/12 01:12:15;;;;;;;53.47;24.47;;;-5.80;99.90;;;;;;8315796;28;20184;-69
2021/12/12 01:16:19;;;;;;;62.30;26.33;;;-5.80;99.90;;;;;;8301892;28;20221;-68
2021/12/12 01:20:20;;;;;;;67.33;27.40;;;-5.90;99.90;;;;;;8322617;28;20192;-69
2021/12/12 01:24:45;;;;;;;67.70;27.17;;;-5.90;99.90;;;;;;8324430;28;20354;-69
2021/12/12 01:28:53;;;;;;;62.07;25.83;;;-6.00;99.90;;;;;;8302625;28;20214;-69
2021/12/12 01:32:56;;;;;;;47.90;21.50;;;-6.00;99.90;;;;;;8310186;28;20213;-68
2021/12/12 01:37:34;;;;;;;49.47;21.53;;;-5.90;99.90;;;;;;8320981;28;20191;-69
2021/12/12 01:41:38;;;;;;;55.70;25.53;;;-5.70;99.90;;;;;;8325667;28;20208;-70
2021/12/12 01:45:46;;;;;;;57.07;23.73;;;-5.40;99.90;;;;;;8305732;28;20193;-68
2021/12/12 01:49:50;;;;;;;52.17;22.20;;;-5.20;99.90;;;;;;8314176;28;20276;-69
2021/12/12 01:53:54;;;;;;;49.77;22.07;;;-5.10;99.90;;;;;;8301107;28;20187;-69
2021/12/12 01:58:00;;;;;;;47.23;20.00;;;-5.10;99.90;;;;;;8316394;28;20236;-69
2021/12/12 02:02:21;;;;;;;42.17;19.47;;;-5.10;99.90;;;;;;8321686;28;20190;-69
2021/12/12 02:06:23;;;;;;;45.70;20.23;;;-5.10;99.90;;;;;;8306015;28;20241;-68
2021/12/12 02:10:29;;;;;;;43.57;21.17;;;-4.90;99.90;;;;;;8321476;28;20185;-69
2021/12/12 02:14:35;;;;;;;45.37;21.20;;;-4.90;99.90;;;;;;8307970;28;20190;-69
2021/12/12 02:18:39;;;;;;;51.43;24.40;;;-4.80;99.90;;;;;;8314563;28;20190;-69
2021/12/12 02:35:49;;;;;;;41.27;16.73;;;-4.70;99.90;;;;;;8314502;28;20213;-69
2021/12/12 02:39:51;;;;;;;34.73;16.50;;;-4.60;99.90;;;;;;8300183;28;20202;-69
2021/12/12 02:44:00;;;;;;;35.77;16.63;;;-4.50;99.90;;;;;;8296359;28;20201;-69
2021/12/12 02:48:05;;;;;;;32.27;15.87;;;-4.40;99.90;;;;;;8296883;28;20214;-69
2021/12/12 02:52:11;;;;;;;32.50;16.47;;;-4.20;99.90;;;;;;8294469;28;20225;-69
2021/12/12 02:56:16;;;;;;;33.13;17.40;;;-4.10;99.90;;;;;;8295090;28;20600;-69
2021/12/12 03:00:20;;;;;;;33.50;18.53;;;-3.90;99.90;;;;;;8318033;28;20175;-69
2021/12/12 03:04:22;;;;;;;37.97;19.17;;;-3.80;99.90;;;;;;8309331;28;20277;-70
2021/12/12 03:08:23;;;;;;;36.33;18.40;;;-3.80;99.90;;;;;;8330659;28;20292;-68
2021/12/12 03:12:33;;;;;;;35.83;17.43;;;-3.70;99.90;;;;;;8327555;28;20191;-69
2021/12/12 03:16:35;;;;;;;32.50;16.03;;;-3.70;99.90;;;;;;8297317;28;20190;-69
2021/12/12 03:20:44;;;;;;;30.87;16.80;;;-3.70;99.90;;;;;;8294417;28;20210;-68
2021/12/12 03:24:45;;;;;;;35.33;17.13;;;-3.70;99.90;;;;;;8297109;28;20217;-69
2021/12/12 03:28:54;;;;;;;28.77;15.50;;;-3.70;99.90;;;;;;8319843;28;20213;-69
2021/12/12 03:32:55;;;;;;;29.83;15.63;;;-3.60;99.90;;;;;;8301146;28;20198;-68
2021/12/12 03:36:56;;;;;;;29.07;15.97;;;-3.60;99.90;;;;;;8309304;28;20271;-70
2021/12/12 03:41:01;;;;;;;29.97;16.17;;;-3.60;99.90;;;;;;8302611;28;20197;-69
2021/12/12 03:45:05;;;;;;;29.97;14.90;;;-3.50;99.90;;;;;;8301804;28;20237;-69
2021/12/12 03:49:08;;;;;;;30.97;15.53;;;-3.50;99.90;;;;;;8327303;28;20217;-68
2021/12/12 03:53:10;;;;;;;32.83;17.00;;;-3.50;99.90;;;;;;8309685;28;20182;-68
2021/12/12 03:57:11;;;;;;;27.80;15.47;;;-3.50;99.90;;;;;;8303356;28;20209;-69
2021/12/12 04:01:24;;;;;;;25.60;14.80;;;-3.40;99.90;;;;;;8308263;28;20289;-69
2021/12/12 04:05:26;;;;;;;25.20;14.17;;;-3.40;99.90;;;;;;8303308;28;20235;-70
2021/12/12 04:09:27;;;;;;;24.23;14.10;;;-3.40;99.90;;;;;;8327198;28;20216;-68
2021/12/12 04:13:28;;;;;;;25.37;14.23;;;-3.40;99.90;;;;;;8304422;28;20277;-69
2021/12/12 04:17:30;;;;;;;29.10;13.73;;;-3.30;99.90;;;;;;8322844;28;20190;-69
2021/12/12 04:21:32;;;;;;;25.33;14.23;;;-3.30;99.90;;;;;;8310309;28;20189;-68
2021/12/12 04:25:33;;;;;;;26.40;12.80;;;-3.20;99.90;;;;;;8342741;28;20213;-69
2021/12/12 04:29:38;;;;;;;20.70;12.00;;;-3.20;99.90;;;;;;8332892;28;20251;-69
2021/12/12 04:33:39;;;;;;;21.40;13.47;;;-3.10;99.90;;;;;;8314377;28;20181;-68
2021/12/12 04:37:41;;;;;;;22.20;13.23;;;-3.00;99.90;;;;;;8345832;28;20253;-68
2021/12/12 04:41:45;;;;;;;17.97;11.73;;;-3.00;99.90;;;;;;8319261;28;20289;-69
2021/12/12 04:46:07;;;;;;;20.90;11.90;;;-3.00;99.90;;;;;;8339435;28;20198;-68
2021/12/12 04:50:24;;;;;;;19.63;10.13;;;-3.00;99.90;;;;;;8304970;28;20186;-68
2021/12/12 04:54:48;;;;;;;24.07;11.60;;;-3.00;99.90;;;;;;8333376;28;20182;-68
2021/12/12 04:58:57;;;;;;;18.37;12.23;;;-2.90;99.90;;;;;;8303545;28;20271;-69
2021/12/12 05:03:09;;;;;;;20.60;11.73;;;-2.90;99.90;;;;;;8302480;28;20206;-68
2021/12/12 05:07:18;;;;;;;17.83;10.10;;;-2.80;99.90;;;;;;8300476;28;20625;-68
2021/12/12 05:11:39;;;;;;;15.73;10.33;;;-2.80;99.90;;;;;;8324043;28;20206;-68
2021/12/12 05:15:45;;;;;;;19.03;10.70;;;-2.80;99.90;;;;;;8323983;28;20195;-68
2021/12/12 05:19:52;;;;;;;18.13;12.27;;;-2.70;99.90;;;;;;8310983;28;20187;-69
2021/12/12 05:23:58;;;;;;;18.93;10.30;;;-2.70;99.90;;;;;;8315094;28;20263;-69
2021/12/12 05:28:00;;;;;;;16.23;10.10;;;-2.70;99.90;;;;;;8317414;28;20258;-69
2021/12/12 05:32:06;;;;;;;19.40;10.43;;;-2.60;99.90;;;;;;8299962;28;20182;-68
2021/12/12 05:36:09;;;;;;;16.83;9.23;;;-2.60;99.90;;;;;;8335709;28;20193;-69
2021/12/12 05:40:16;;;;;;;17.77;10.10;;;-2.50;99.90;;;;;;8304138;28;20197;-68
2021/12/12 05:44:17;;;;;;;13.17;8.60;;;-2.50;99.90;;;;;;8314456;28;20596;-68
2021/12/12 05:48:21;;;;;;;16.00;9.90;;;-2.50;99.90;;;;;;8303730;28;20205;-69
2021/12/12 05:52:23;;;;;;;18.73;9.73;;;-2.50;99.90;;;;;;8327557;28;20278;-67
2021/12/12 05:56:26;;;;;;;15.20;10.00;;;-2.60;99.90;;;;;;8303101;28;20188;-69
2021/12/12 06:00:32;;;;;;;19.13;11.13;;;-2.60;99.90;;;;;;8303087;28;20182;-70
2021/12/12 06:04:35;;;;;;;14.40;9.57;;;-2.60;99.90;;;;;;8312607;28;20193;-68
2021/12/12 06:08:37;;;;;;;14.90;9.57;;;-2.60;99.90;;;;;;8306798;28;20198;-68
2021/12/12 06:12:39;;;;;;;17.17;9.03;;;-2.60;99.90;;;;;;8318436;28;20191;-68
2021/12/12 06:16:41;;;;;;;15.10;9.67;;;-2.50;99.90;;;;;;8316709;28;20226;-69
2021/12/12 06:20:43;;;;;;;15.23;9.40;;;-2.50;99.90;;;;;;8313351;28;20186;-69
2021/12/12 06:24:44;;;;;;;17.30;8.97;;;-2.50;99.90;;;;;;8325166;28;20295;-68
2021/12/12 06:28:45;;;;;;;15.80;10.20;;;-2.50;99.90;;;;;;8333561;28;20196;-68
2021/12/12 06:32:47;;;;;;;18.73;9.67;;;-2.60;99.90;;;;;;8346832;28;20531;-68
2021/12/12 06:36:50;;;;;;;17.00;10.67;;;-2.60;99.90;;;;;;8304032;28;20305;-68
2021/12/12 06:40:53;;;;;;;20.10;12.23;;;-2.60;99.90;;;;;;8318548;28;20194;-69
2021/12/12 06:44:54;;;;;;;16.83;9.50;;;-2.70;99.90;;;;;;8317844;28;20255;-70
2021/12/12 06:48:55;;;;;;;17.57;10.77;;;-2.70;99.90;;;;;;8327188;28;20288;-68
2021/12/12 06:52:58;;;;;;;19.70;10.30;;;-2.80;99.90;;;;;;8313614;28;20187;-69
2021/12/12 06:57:06;;;;;;;19.23;10.10;;;-2.90;99.90;;;;;;8306719;28;20215;-69
2021/12/12 07:01:11;;;;;;;18.63;9.90;;;-2.90;99.90;;;;;;8293284;28;20285;-69
2021/12/12 07:05:15;;;;;;;17.93;9.63;;;-2.90;99.90;;;;;;8304708;28;20194;-71
2021/12/12 07:09:16;;;;;;;15.77;9.33;;;-2.90;99.90;;;;;;8302414;28;20353;-68
2021/12/12 07:13:18;;;;;;;15.70;10.77;;;-2.90;99.90;;;;;;8321779;28;20217;-70
2021/12/12 07:17:21;;;;;;;19.80;12.33;;;-2.80;99.90;;;;;;8305944;28;20209;-69
2021/12/12 07:21:24;;;;;;;17.53;11.90;;;-2.70;99.90;;;;;;8297623;28;20190;-69
2021/12/12 07:25:25;;;;;;;18.13;9.53;;;-2.70;99.90;;;;;;8305156;28;20211;-70
2021/12/12 07:29:28;;;;;;;19.97;10.87;;;-2.60;99.90;;;;;;8303298;28;20210;-69
2021/12/12 07:33:32;;;;;;;19.03;11.43;;;-2.50;99.90;;;;;;8292047;28;20187;-69
2021/12/12 07:37:35;;;;;;;17.33;10.43;;;-2.40;99.90;;;;;;8316313;28;20274;-69
2021/12/12 07:41:38;;;;;;;18.57;10.60;;;-2.30;99.90;;;;;;8307484;28;20206;-68
2021/12/12 07:45:39;;;;;;;17.80;9.97;;;-2.10;99.90;;;;;;8292726;28;20199;-70
2021/12/12 07:49:45;;;;;;;22.43;11.77;;;-2.00;99.90;;;;;;8317729;28;20214;-71
2021/12/12 07:53:49;;;;;;;24.90;13.40;;;-1.70;99.90;;;;;;8322352;28;20188;-72
2021/12/12 07:57:51;;;;;;;21.17;14.03;;;-1.40;99.90;;;;;;8314869;28;20184;-72
2021/12/12 08:01:52;;;;;;;21.50;11.33;;;-1.20;99.90;;;;;;8322332;28;20212;-71
2021/12/12 08:05:54;;;;;;;21.13;12.33;;;-1.00;99.90;;;;;;8308451;28;20226;-70
2021/12/12 08:09:55;;;;;;;23.67;13.40;;;-0.90;99.90;;;;;;8317295;28;20218;-71
2021/12/12 08:13:57;;;;;;;24.73;13.17;;;-0.80;99.90;;;;;;8293263;28;20187;-70
2021/12/12 08:18:01;;;;;;;22.27;13.50;;;-0.80;99.90;;;;;;8313788;28;20522;-71
2021/12/12 08:22:07;;;;;;;22.37;13.13;;;-0.80;99.90;;;;;;8309288;28;20194;-71
2021/12/12 08:26:10;;;;;;;25.63;14.73;;;-0.60;99.90;;;;;;8301993;28;20235;-71
2021/12/12 08:30:15;;;;;;;21.17;12.23;;;-0.50;99.90;;;;;;8301508;28;20250;-71
2021/12/12 08:34:16;;;;;;;21.43;13.33;;;-0.50;99.90;;;;;;8316804;28;20181;-71
2021/12/12 08:38:17;;;;;;;21.03;11.93;;;-0.40;99.90;;;;;;8323865;28;20198;-71
2021/12/12 08:42:19;;;;;;;23.95;17.40;;;-0.20;99.90;;;;;;8303496;28;20430;-70
2021/12/12 08:46:23;;;;;;;20.17;12.67;;;0.00;99.90;;;;;;8297267;28;20191;-71
2021/12/12 08:50:29;;;;;;;21.70;12.00;;;0.20;99.90;;;;;;8316438;28;20248;-70
2021/12/12 08:54:32;;;;;;;17.20;11.60;;;0.40;99.90;;;;;;8315795;28;20189;-70
2021/12/12 08:58:33;;;;;;;20.50;12.27;;;0.60;99.90;;;;;;8298567;28;20218;-69
2021/12/12 09:02:34;;;;;;;24.10;12.67;;;0.90;99.90;;;;;;8300745;28;20195;-70
2021/12/12 09:07:01;;;;;;;20.10;12.20;;;1.20;99.90;;;;;;8304461;28;20190;-70
2021/12/12 09:11:13;;;;;;;16.90;11.53;;;1.20;99.90;;;;;;8313084;28;20187;-69
2021/12/12 09:15:29;;;;;;;20.63;12.00;;;1.40;99.90;;;;;;8300065;28;20183;-69
2021/12/12 09:19:51;;;;;;;21.40;12.80;;;1.70;99.90;;;;;;8314771;28;20191;-70
2021/12/12 09:24:19;;;;;;;19.93;13.13;;;1.90;99.90;;;;;;8297794;28;20263;-70
2021/12/12 09:28:26;;;;;;;22.57;14.30;;;2.10;99.90;;;;;;8297343;28;20404;-69
2021/12/12 09:32:39;;;;;;;21.17;12.60;;;2.20;99.90;;;;;;8319567;28;20221;-69
2021/12/12 09:37:03;;;;;;;23.73;13.03;;;2.30;99.90;;;;;;8304177;28;20197;-68
2021/12/12 09:41:09;;;;;;;23.23;12.23;;;2.30;99.90;;;;;;8309626;28;20227;-68
2021/12/12 09:45:25;;;;;;;21.53;12.00;;;2.40;99.90;;;;;;8304514;28;20285;-68
2021/12/12 09:54:35;;;;;;;19.67;10.93;;;2.50;99.90;;;;;;8315404;28;20301;-68
2021/12/12 09:59:04;;;;;;;19.97;10.60;;;2.70;99.90;;;;;;8303512;28;20207;-67
2021/12/12 10:03:29;;;;;;;17.57;11.30;;;2.90;99.90;;;;;;8319307;28;20240;-67
2021/12/12 10:07:58;;;;;;;18.33;10.87;;;2.90;99.90;;;;;;8286908;28;20440;-67
2021/12/12 10:12:21;;;;;;;20.00;11.00;;;3.00;99.90;;;;;;8295379;28;20245;-67
2021/12/12 10:16:39;;;;;;;19.80;13.37;;;3.30;99.90;;;;;;8297791;28;20226;-67
2021/12/12 10:20:51;;;;;;;31.87;19.20;;;3.50;99.90;;;;;;8300346;28;20187;-66
2021/12/12 10:25:05;;;;;;;20.77;13.47;;;3.70;99.90;;;;;;8314761;28;20226;-67
2021/12/12 10:29:08;;;;;;;29.03;15.53;;;3.90;99.90;;;;;;8302501;28;20217;-66
2021/12/12 10:33:21;;;;;;;23.47;14.47;;;4.00;99.90;;;;;;8316871;28;20223;-66
2021/12/12 10:37:23;;;;;;;20.97;13.77;;;4.10;99.90;;;;;;8306770;28;20182;-67
2021/12/12 10:41:42;;;;;;;23.47;14.07;;;4.10;99.90;;;;;;8312343;28;20195;-66
2021/12/12 10:45:49;;;;;;;23.90;15.67;;;4.00;99.90;;;;;;8312113;28;20213;-66
2021/12/12 10:50:10;;;;;;;24.43;14.47;;;4.00;99.90;;;;;;8302639;28;20213;-65
2021/12/12 10:54:18;;;;;;;21.57;13.80;;;4.00;99.90;;;;;;8295242;28;20190;-65
2021/12/12 10:58:39;;;;;;;20.57;13.80;;;4.00;99.90;;;;;;8323809;28;20189;-67
2021/12/12 11:03:09;;;;;;;18.97;12.30;;;4.10;99.90;;;;;;8305583;28;20194;-68
2021/12/12 11:07:38;;;;;;;19.60;11.50;;;4.20;99.90;;;;;;8298969;28;20292;-66
2021/12/12 11:11:54;;;;;;;19.50;11.30;;;4.10;99.90;;;;;;8312995;28;20199;-67
2021/12/12 11:16:17;;;;;;;18.80;9.93;;;4.00;99.90;;;;;;8300461;28;20194;-67
2021/12/12 11:20:38;;;;;;;14.70;9.37;;;4.00;99.90;;;;;;8313478;28;20201;-67
2021/12/12 11:24:43;;;;;;;15.37;9.70;;;3.90;99.90;;;;;;8313103;28;20210;-67
2021/12/12 11:28:51;;;;;;;12.10;8.37;;;4.00;99.90;;;;;;8309843;28;20217;-67
2021/12/12 11:32:55;;;;;;;13.60;9.03;;;4.00;99.90;;;;;;8291826;28;20188;-67
2021/12/12 11:37:22;;;;;;;15.63;8.63;;;4.10;99.90;;;;;;8292034;28;20204;-67
2021/12/12 11:41:47;;;;;;;14.50;8.83;;;4.30;99.90;;;;;;8306405;28;20267;-66
2021/12/12 11:46:11;;;;;;;18.87;10.93;;;4.30;99.90;;;;;;8308469;28;20222;-67
2021/12/12 11:50:42;;;;;;;18.33;10.90;;;4.10;99.90;;;;;;8300496;28;20230;-67
2021/12/12 11:54:55;;;;;;;14.70;9.80;;;4.20;99.90;;;;;;8294987;28;20198;-66
2021/12/12 11:59:05;;;;;;;14.60;8.83;;;4.20;99.90;;;;;;8309549;28;20193;-66
2021/12/12 12:03:21;;;;;;;14.20;9.67;;;4.20;99.90;;;;;;8316629;28;20187;-66
2021/12/12 12:07:36;;;;;;;15.70;9.80;;;4.30;99.90;;;;;;8299501;28;20291;-66
2021/12/12 12:12:13;;;;;;;18.47;12.37;;;4.30;99.90;;;;;;8322777;28;20240;-66
2021/12/12 12:16:49;;;;;;;16.40;9.90;;;4.40;99.90;;;;;;8309308;28;20190;-66
2021/12/12 12:20:57;;;;;;;21.97;13.60;;;4.50;99.90;;;;;;8299465;28;20188;-66
2021/12/12 12:25:17;;;;;;;18.50;12.93;;;4.50;99.90;;;;;;8319658;28;20211;-65
2021/12/12 12:29:27;;;;;;;15.93;10.67;;;4.60;99.90;;;;;;8306806;28;20209;-65
2021/12/12 12:33:56;;;;;;;16.37;8.93;;;4.70;99.90;;;;;;8311255;28;20224;-65
2021/12/12 12:38:34;;;;;;;11.83;7.67;;;4.70;99.90;;;;;;8312390;28;20195;-65
2021/12/12 12:43:20;;;;;;;15.77;7.67;;;4.80;99.90;;;;;;8328930;28;20194;-65
2021/12/12 12:47:40;;;;;;;13.47;8.40;;;4.80;99.90;;;;;;8300283;28;20210;-65
2021/12/12 12:52:02;;;;;;;13.17;9.17;;;4.80;99.90;;;;;;8316413;28;20190;-65
2021/12/12 12:56:32;;;;;;;18.13;10.70;;;4.80;99.90;;;;;;8317766;28;20203;-65
2021/12/12 13:00:35;;;;;;;21.43;11.53;;;4.80;99.90;;;;;;8305199;28;20187;-66
2021/12/12 13:05:08;;;;;;;28.37;13.57;;;4.70;99.90;;;;;;8302079;28;20248;-66
2021/12/12 13:09:22;;;;;;;20.53;10.00;;;4.60;99.90;;;;;;8322769;28;20206;-66
2021/12/12 13:13:31;;;;;;;13.37;7.67;;;4.50;99.90;;;;;;8304452;28;20182;-66
2021/12/12 13:17:32;;;;;;;14.20;8.57;;;4.50;99.90;;;;;;8317456;28;20248;-65
2021/12/12 13:22:02;;;;;;;11.37;8.17;;;4.30;99.90;;;;;;8301698;28;20186;-66
2021/12/12 13:26:12;;;;;;;10.80;7.90;;;4.10;99.90;;;;;;8305232;28;20248;-68
2021/12/12 13:30:28;;;;;;;14.97;7.70;;;3.90;99.90;;;;;;8316029;28;20209;-66
2021/12/12 13:34:41;;;;;;;12.77;7.60;;;3.60;99.90;;;;;;8297313;28;20276;-66
2021/12/12 13:38:49;;;;;;;14.30;7.43;;;3.40;99.90;;;;;;8300012;28;20214;-67
2021/12/12 13:42:58;;;;;;;13.00;7.53;;;3.20;99.90;;;;;;8297835;28;20226;-66
2021/12/12 13:47:21;;;;;;;12.00;7.50;;;3.10;99.90;;;;;;8319716;28;20225;-66
2021/12/12 13:51:52;;;;;;;14.57;8.43;;;3.00;99.90;;;;;;8327612;28;20186;-66
2021/12/12 13:56:40;;;;;;;12.30;6.90;;;2.90;99.90;;;;;;8309742;28;20197;-65
2021/12/12 14:00:46;;;;;;;12.07;8.63;;;2.70;99.90;;;;;;8299876;28;20185;-65
2021/12/12 14:05:05;;;;;;;13.87;8.60;;;2.60;99.90;;;;;;8296035;28;20197;-66
2021/12/12 14:09:13;;;;;;;10.17;7.90;;;2.50;99.90;;;;;;8317719;28;20297;-66
2021/12/12 14:13:33;;;;;;;9.83;6.90;;;2.40;99.90;;;;;;8319491;28;20196;-66
2021/12/12 14:17:45;;;;;;;9.63;6.57;;;2.20;99.90;;;;;;8312382;28;20283;-67
2021/12/12 14:21:47;;;;;;;12.03;7.23;;;2.10;99.90;;;;;;8291751;28;20189;-66
2021/12/12 14:25:52;;;;;;;10.53;6.33;;;1.90;99.90;;;;;;8293738;28;20281;-66
2021/12/12 14:29:54;;;;;;;12.13;7.00;;;1.60;99.90;;;;;;8316872;28;20217;-67
2021/12/12 14:34:12;;;;;;;12.87;6.43;;;1.50;99.90;;;;;;8299760;28;20570;-66
2021/12/12 14:38:16;;;;;;;11.03;6.67;;;1.50;99.90;;;;;;8301375;28;20586;-66
2021/12/12 14:42:24;;;;;;;11.27;6.53;;;1.30;99.90;;;;;;8316885;28;20186;-66
2021/12/12 14:46:47;;;;;;;13.20;6.73;;;1.20;99.90;;;;;;8293654;28;20207;-67
2021/12/12 14:50:58;;;;;;;12.50;6.97;;;1.10;99.90;;;;;;8310678;28;20187;-66
2021/12/12 14:55:10;;;;;;;9.33;5.87;;;1.00;99.90;;;;;;8291561;28;20202;-66
2021/12/12 14:59:33;;;;;;;10.83;6.10;;;0.90;99.90;;;;;;8312940;28;20190;-66
2021/12/12 15:03:38;;;;;;;13.30;8.17;;;0.90;99.90;;;;;;8303566;28;20199;-66
2021/12/12 15:07:43;;;;;;;13.33;8.13;;;0.90;99.90;;;;;;8322722;28;20253;-66
2021/12/12 15:12:11;;;;;;;10.50;7.33;;;0.80;99.90;;;;;;8308143;28;20206;-67
2021/12/12 15:16:16;;;;;;;11.23;6.83;;;0.70;99.90;;;;;;8297328;28;20190;-67
2021/12/12 15:20:24;;;;;;;10.30;6.80;;;0.60;99.90;;;;;;8305469;28;20220;-64
2021/12/12 15:24:30;;;;;;;10.60;6.73;;;0.50;99.90;;;;;;8302148;28;20202;-64
2021/12/12 15:28:34;;;;;;;10.27;6.50;;;0.40;99.90;;;;;;8295101;28;20210;-64
2021/12/12 15:32:36;;;;;;;13.30;8.10;;;0.30;99.90;;;;;;8299485;28;20499;-64
2021/12/12 15:36:43;;;;;;;15.43;8.53;;;0.30;99.90;;;;;;8322355;28;20209;-66
2021/12/12 15:40:47;;;;;;;16.67;9.43;;;0.30;99.90;;;;;;8296797;28;20191;-65
2021/12/12 15:45:01;;;;;;;17.93;9.30;;;0.30;99.90;;;;;;8306651;28;20299;-64
2021/12/12 15:49:17;;;;;;;15.07;9.30;;;0.40;99.90;;;;;;8308075;28;20210;-64
2021/12/12 15:53:25;;;;;;;23.23;10.93;;;0.40;99.90;;;;;;8319272;28;20194;-64
2021/12/12 15:57:34;;;;;;;23.93;12.17;;;0.50;99.90;;;;;;8306211;28;20193;-65
2021/12/12 16:01:46;;;;;;;25.13;12.63;;;0.70;99.90;;;;;;8303490;28;20207;-64
2021/12/12 16:05:59;;;;;;;22.00;10.90;;;0.80;99.90;;;;;;8316382;28;20198;-65
2021/12/12 16:10:26;;;;;;;24.93;12.87;;;0.80;99.90;;;;;;8300451;28;20217;-64
2021/12/12 16:14:34;;;;;;;17.93;11.40;;;0.80;99.90;;;;;;8318405;28;20182;-70
2021/12/12 16:18:39;;;;;;;21.27;11.67;;;0.80;99.90;;;;;;8303925;28;20194;-64
2021/12/12 16:22:48;;;;;;;20.23;11.50;;;0.80;99.90;;;;;;8301579;28;20218;-65
2021/12/12 16:26:52;;;;;;;21.87;11.63;;;0.90;99.90;;;;;;8304319;28;20195;-67
2021/12/12 16:30:55;;;;;;;17.43;10.27;;;0.90;99.90;;;;;;8320757;28;20247;-64
2021/12/12 16:35:00;;;;;;;18.40;9.83;;;1.00;99.90;;;;;;8302467;28;20195;-65
2021/12/12 16:39:07;;;;;;;18.07;10.00;;;1.10;99.90;;;;;;8325649;28;20190;-65
2021/12/12 16:43:19;;;;;;;20.30;9.10;;;1.20;99.90;;;;;;8308312;28;20202;-64
2021/12/12 16:47:24;;;;;;;31.53;16.17;;;1.30;99.90;;;;;;8201947;28;20225;-66
2021/12/12 16:51:28;;;;;;;171.37;58.53;;;1.40;99.90;;;;;;8274027;28;20289;-66
2021/12/12 16:55:36;;;;;;;129.33;55.77;;;1.40;99.90;;;;;;8300532;28;20194;-64
2021/12/12 16:59:42;;;;;;;74.83;37.70;;;1.50;99.90;;;;;;8298157;28;20199;-63
2021/12/12 17:03:47;;;;;;;78.57;40.13;;;1.60;99.90;;;;;;8300549;28;20206;-69
2021/12/12 17:07:52;;;;;;;142.70;50.47;;;1.70;99.90;;;;;;8295780;28;20218;-64
2021/12/12 17:12:00;;;;;;;237.93;74.57;;;1.60;99.90;;;;;;8125543;28;20186;-67
2021/12/12 17:16:07;;;;;;;184.33;62.73;;;1.70;99.90;;;;;;8021386;28;20245;-64
2021/12/12 17:20:24;;;;;;;150.30;54.60;;;1.60;99.90;;;;;;7993173;28;20292;-63
2021/12/12 17:24:30;;;;;;;134.90;60.93;;;1.50;99.90;;;;;;7990530;28;20245;-67
2021/12/12 17:28:33;;;;;;;174.00;71.50;;;1.40;99.90;;;;;;7979258;28;20301;-67
2021/12/12 17:32:55;;;;;;;149.27;63.97;;;1.10;99.90;;;;;;7978145;28;20198;-65
2021/12/12 17:37:06;;;;;;;153.17;63.67;;;1.00;99.90;;;;;;8047522;28;20187;-64
2021/12/12 17:41:28;;;;;;;132.83;56.53;;;1.10;99.90;;;;;;8003892;28;20651;-62
2021/12/12 17:46:05;;;;;;;116.90;48.90;;;1.10;99.90;;;;;;8015077;28;20237;-63
2021/12/12 17:50:21;;;;;;;75.73;33.57;;;1.20;99.90;;;;;;8117459;28;20225;-63
2021/12/12 17:54:47;;;;;;;59.63;28.10;;;1.20;99.90;;;;;;8176491;28;20187;-65
2021/12/12 17:58:58;;;;;;;49.63;25.30;;;1.20;99.90;;;;;;8173594;28;20245;-66
2021/12/12 18:03:03;;;;;;;39.00;20.00;;;1.20;99.90;;;;;;8160836;28;20237;-65
2021/12/12 18:07:07;;;;;;;36.63;18.47;;;1.30;99.90;;;;;;8200371;28;20213;-67
2021/12/12 18:11:10;;;;;;;45.20;22.47;;;1.30;99.90;;;;;;8233870;28;20191;-65
2021/12/12 18:15:13;;;;;;;45.93;22.93;;;1.40;99.90;;;;;;8209635;28;20194;-66
2021/12/12 18:20:03;;;;;;;43.28;25.58;;;1.30;99.90;;;;;;8205660;28;20449;-69
2021/12/12 18:24:12;;;;;;;37.90;19.20;;;1.40;99.90;;;;;;8224828;28;20956;-67
2021/12/12 18:28:25;;;;;;;37.33;20.60;;;1.40;99.90;;;;;;8258565;28;20209;-67
2021/12/12 18:32:34;;;;;;;37.53;18.47;;;1.40;99.90;;;;;;8224864;28;21133;-66
2021/12/12 18:36:56;;;;;;;30.03;17.23;;;1.50;99.90;;;;;;8237782;28;20190;-66
2021/12/12 18:41:01;;;;;;;32.87;18.73;;;1.50;99.90;;;;;;8241562;28;20240;-67
2021/12/12 18:45:09;;;;;;;43.17;22.70;;;1.50;99.90;;;;;;8236480;28;22274;-65
2021/12/12 18:49:17;;;;;;;47.60;23.83;;;1.40;99.90;;;;;;8252530;28;20217;-68
2021/12/12 18:53:42;;;;;;;36.30;19.63;;;1.40;99.90;;;;;;8236552;28;20221;-66
2021/12/12 18:57:50;;;;;;;37.63;19.73;;;1.40;99.90;;;;;;8237803;28;20194;-66
2021/12/12 19:02:14;;;;;;;33.00;17.60;;;1.40;99.90;;;;;;8293975;28;20195;-67
2021/12/12 19:06:39;;;;;;;28.17;14.67;;;1.40;99.90;;;;;;8275600;28;20198;-66
2021/12/12 19:11:04;;;;;;;21.20;12.83;;;1.30;99.90;;;;;;8292172;28;20283;-65
2021/12/12 19:15:31;;;;;;;25.87;12.43;;;1.40;99.90;;;;;;8271076;28;20222;-66
2021/12/12 19:19:38;;;;;;;30.37;14.43;;;1.50;99.90;;;;;;8287996;28;20251;-66
2021/12/12 19:23:44;;;;;;;24.60;13.30;;;1.70;99.90;;;;;;8283936;28;20210;-68
2021/12/12 19:27:48;;;;;;;19.87;12.83;;;1.90;99.90;;;;;;8279945;28;20206;-64
2021/12/12 19:31:56;;;;;;;24.87;12.97;;;2.10;99.90;;;;;;8269384;28;20215;-68
2021/12/12 19:36:00;;;;;;;20.93;13.00;;;2.10;99.90;;;;;;8270894;28;20252;-68
2021/12/12 19:40:11;;;;;;;21.93;13.63;;;2.20;99.90;;;;;;8251185;28;20191;-68
2021/12/12 19:44:20;;;;;;;21.40;13.67;;;2.10;99.90;;;;;;8253183;28;20202;-65
2021/12/12 19:48:24;;;;;;;22.97;14.13;;;2.10;99.90;;;;;;8265642;28;20241;-66
2021/12/12 19:52:35;;;;;;;23.83;12.10;;;2.10;99.90;;;;;;8249836;28;20300;-66
2021/12/12 19:56:41;;;;;;;20.63;10.67;;;2.10;99.90;;;;;;8252386;28;20197;-68
2021/12/12 20:00:48;;;;;;;19.20;11.90;;;2.20;99.90;;;;;;8278021;28;20219;-67
2021/12/12 20:04:57;;;;;;;18.77;11.17;;;2.20;99.90;;;;;;8280559;28;20194;-65
2021/12/12 20:09:21;;;;;;;16.87;11.83;;;2.30;99.90;;;;;;8282128;28;20199;-67
2021/12/12 20:13:46;;;;;;;22.97;13.53;;;2.30;99.90;;;;;;8269116;28;20205;-64
2021/12/12 20:17:50;;;;;;;18.63;13.43;;;2.40;99.90;;;;;;8280005;28;20218;-64
2021/12/12 20:22:00;;;;;;;22.17;12.43;;;2.40;99.90;;;;;;8282781;28;20187;-63
2021/12/12 20:26:10;;;;;;;17.33;11.97;;;2.50;99.90;;;;;;8268788;28;20193;-64
2021/12/12 20:30:14;;;;;;;16.13;11.33;;;2.50;99.90;;;;;;8304530;28;20225;-68
2021/12/12 20:34:24;;;;;;;17.43;12.33;;;2.50;99.90;;;;;;8300627;28;20182;-63
2021/12/12 20:38:37;;;;;;;17.70;11.90;;;2.50;99.90;;;;;;8312157;28;20196;-63
2021/12/12 20:42:44;;;;;;;20.67;11.30;;;2.60;99.90;;;;;;8315264;28;20197;-65
2021/12/12 20:46:48;;;;;;;19.53;12.40;;;2.70;99.90;;;;;;8306363;28;20227;-64
2021/12/12 20:50:58;;;;;;;17.70;11.53;;;2.70;99.90;;;;;;8298237;28;20244;-65
2021/12/12 20:55:26;;;;;;;16.57;12.17;;;2.70;99.90;;;;;;8297299;28;20194;-65
2021/12/12 20:59:38;;;;;;;18.90;11.80;;;2.70;99.90;;;;;;8247551;28;20190;-65
2021/12/12 21:04:03;;;;;;;16.20;11.03;;;2.80;99.90;;;;;;8243742;28;20206;-64
2021/12/12 21:08:09;;;;;;;19.20;10.47;;;2.80;99.90;;;;;;8251854;28;20387;-63
2021/12/12 21:12:17;;;;;;;18.07;10.17;;;2.80;99.90;;;;;;8244643;28;20187;-68
2021/12/12 21:16:24;;;;;;;16.27;10.17;;;2.80;99.90;;;;;;8231681;28;20180;-64
2021/12/12 21:20:31;;;;;;;14.77;10.20;;;2.80;99.90;;;;;;8233674;28;20190;-66
2021/12/12 21:24:41;;;;;;;15.97;10.30;;;2.80;99.90;;;;;;8264647;28;20229;-65
2021/12/12 21:28:47;;;;;;;16.93;9.60;;;2.80;99.90;;;;;;8299913;28;20296;-65
2021/12/12 21:32:50;;;;;;;13.70;9.23;;;2.80;99.90;;;;;;8323740;28;20195;-66
2021/12/12 21:37:09;;;;;;;12.10;9.30;;;2.80;99.90;;;;;;8298497;28;20228;-65
2021/12/12 21:41:10;;;;;;;13.27;9.03;;;2.70;99.90;;;;;;8302051;28;20225;-64